createdAt,value
2023-03-21T00:01:52.499Z,4.60
2023-03-21T00:04:20.380Z,4.43
2023-03-21T00:06:47.697Z,4.70
2023-03-21T00:09:15.061Z,4.60
2023-03-21T00:11:42.680Z,5.10
2023-03-21T00:14:14.651Z,5.10
2023-03-21T00:16:45.967Z,5.10
2023-03-21T00:19:14.614Z,5.43
2023-03-21T00:22:05.871Z,5.37
2023-03-21T00:24:30.887Z,4.90
2023-03-21T00:27:10.734Z,4.57
2023-03-21T00:29:45.693Z,5.23
2023-03-21T00:32:18.711Z,4.93
2023-03-21T00:35:01.524Z,4.73
2023-03-21T00:37:37.182Z,4.90
2023-03-21T00:40:16.407Z,4.97
2023-03-21T00:42:51.115Z,5.20
2023-03-21T00:45:22.680Z,5.30
2023-03-21T00:47:50.343Z,5.40
2023-03-21T00:50:18.217Z,4.73
2023-03-21T00:52:46.176Z,4.70
2023-03-21T00:55:15.391Z,4.93
2023-03-21T00:57:47.387Z,4.77
2023-03-21T01:00:19.320Z,4.60
2023-03-21T01:03:04.423Z,4.90
2023-03-21T01:05:58.125Z,4.83
2023-03-21T01:08:35.224Z,4.50
2023-03-21T01:11:12.179Z,10.63
2023-03-21T01:13:47.480Z,6.43
2023-03-21T01:16:23.799Z,6.17
2023-03-21T01:18:51.247Z,5.10
2023-03-21T01:21:18.633Z,5.40
2023-03-21T01:23:46.339Z,4.70
2023-03-21T01:26:13.839Z,5.30
2023-03-21T01:28:42.148Z,5.40
2023-03-21T01:31:09.899Z,4.83
2023-03-21T01:33:37.478Z,6.30
2023-03-21T01:36:12.769Z,5.20
2023-03-21T01:38:43.012Z,5.53
2023-03-21T01:41:42.093Z,4.80
2023-03-21T01:44:19.076Z,5.70
2023-03-21T01:47:00.493Z,5.30
2023-03-21T01:50:03.176Z,5.63
2023-03-21T01:52:42.106Z,4.90
2023-03-21T01:55:20.255Z,5.70
2023-03-21T01:58:05.955Z,5.83
2023-03-21T02:01:00.707Z,5.70
2023-03-21T02:03:38.493Z,6.27
2023-03-21T02:06:31.776Z,5.33
2023-03-21T02:09:09.894Z,6.20
2023-03-21T02:11:38.581Z,5.40
2023-03-21T02:14:07.669Z,5.43
2023-03-21T02:16:54.998Z,5.97
2023-03-21T02:19:34.154Z,5.77
2023-03-21T02:22:17.008Z,5.90
2023-03-21T02:25:01.491Z,6.47
2023-03-21T02:27:34.853Z,5.90
2023-03-21T02:30:04.486Z,6.20
2023-03-21T02:32:37.909Z,6.10
2023-03-21T02:35:16.921Z,5.40
2023-03-21T02:37:58.266Z,5.97
2023-03-21T02:40:33.010Z,5.80
2023-03-21T02:43:22.639Z,7.23
2023-03-21T02:46:02.006Z,5.40
2023-03-21T02:48:50.344Z,5.03
2023-03-21T02:51:20.610Z,6.70
2023-03-21T02:53:55.002Z,5.70
2023-03-21T02:56:37.094Z,6.70
2023-03-21T02:59:06.357Z,6.13
2023-03-21T03:01:35.440Z,6.63
2023-03-21T03:04:03.370Z,5.70
2023-03-21T03:06:37.938Z,5.50
2023-03-21T03:09:13.589Z,6.47
2023-03-21T03:11:43.532Z,6.27
2023-03-21T03:14:44.260Z,6.90
2023-03-21T03:17:23.269Z,6.20
2023-03-21T03:20:07.227Z,6.40
2023-03-21T03:22:47.746Z,5.87
2023-03-21T03:25:29.846Z,6.30
2023-03-21T03:28:09.005Z,6.63
2023-03-21T03:30:43.343Z,7.23
2023-03-21T03:33:23.400Z,6.83
2023-03-21T03:36:04.359Z,7.13
2023-03-21T03:38:35.044Z,7.07
2023-03-21T03:41:06.484Z,6.77
2023-03-21T03:43:43.783Z,7.17
2023-03-21T03:46:15.325Z,7.23
2023-03-21T03:49:09.178Z,6.70
2023-03-21T03:51:41.114Z,7.53
2023-03-21T03:54:24.689Z,7.60
2023-03-21T03:56:53.145Z,7.60
2023-03-21T03:59:24.259Z,6.70
2023-03-21T04:02:21.073Z,7.23
2023-03-21T04:04:52.956Z,6.50
2023-03-21T04:07:22.391Z,7.20
2023-03-21T04:09:52.774Z,6.07
2023-03-21T04:12:21.575Z,6.83
2023-03-21T04:15:11.015Z,7.47
2023-03-21T04:17:42.639Z,7.83
2023-03-21T04:20:16.580Z,6.27
2023-03-21T04:22:48.703Z,7.80
2023-03-21T04:25:27.419Z,7.10
2023-03-21T04:28:00.392Z,7.30
2023-03-21T04:30:38.508Z,6.90
2023-03-21T04:33:14.632Z,8.10
2023-03-21T04:35:49.574Z,6.90
2023-03-21T04:38:16.752Z,7.73
2023-03-21T04:40:43.942Z,7.47
2023-03-21T04:43:11.256Z,7.83
2023-03-21T04:45:40.526Z,9.47
2023-03-21T04:48:08.544Z,7.40
2023-03-21T04:50:36.075Z,7.07
2023-03-21T04:53:04.048Z,7.00
2023-03-21T04:55:32.308Z,7.73
2023-03-21T04:57:59.613Z,7.57
2023-03-21T05:00:27.116Z,6.97
2023-03-21T05:02:54.269Z,7.03
2023-03-21T05:05:22.878Z,7.20
2023-03-21T05:07:52.191Z,7.10
2023-03-21T05:10:19.633Z,7.77
2023-03-21T05:12:47.030Z,7.57
2023-03-21T05:15:14.621Z,7.23
2023-03-21T05:17:42.874Z,7.13
2023-03-21T05:20:18.893Z,7.53
2023-03-21T05:22:50.085Z,7.10
2023-03-21T05:25:21.135Z,8.03
2023-03-21T05:28:08.732Z,8.10
2023-03-21T05:30:36.416Z,7.97
2023-03-21T05:33:04.303Z,8.30
2023-03-21T05:35:31.995Z,7.00
2023-03-21T05:38:02.241Z,7.83
2023-03-21T05:40:33.247Z,6.90
2023-03-21T05:43:00.556Z,7.50
2023-03-21T05:45:27.845Z,7.53
2023-03-21T05:47:56.055Z,8.40
2023-03-21T05:50:27.993Z,7.23
2023-03-21T05:53:07.697Z,7.90
2023-03-21T05:55:35.673Z,7.37
2023-03-21T05:58:03.934Z,7.73
2023-03-21T06:00:31.780Z,8.30
2023-03-21T06:03:13.292Z,8.40
2023-03-21T06:05:54.318Z,7.67
2023-03-21T06:08:25.462Z,7.83
2023-03-21T06:10:52.635Z,8.90
2023-03-21T06:13:19.888Z,8.00
2023-03-21T06:15:47.173Z,8.83
2023-03-21T06:18:19.021Z,8.23
2023-03-21T06:20:58.779Z,8.20
2023-03-21T06:23:26.002Z,8.50
2023-03-21T06:25:54.140Z,8.13
2023-03-21T06:28:24.039Z,9.73
2023-03-21T06:30:51.189Z,7.90
2023-03-21T06:33:24.664Z,7.43
2023-03-21T06:35:56.370Z,8.60
2023-03-21T06:38:24.592Z,8.20
2023-03-21T06:40:51.952Z,8.60
2023-03-21T06:43:19.208Z,9.07
2023-03-21T06:45:47.143Z,8.80
2023-03-21T06:48:14.391Z,8.63
2023-03-21T06:50:48.818Z,8.30
2023-03-21T06:53:16.875Z,8.83
2023-03-21T06:56:02.626Z,8.40
2023-03-21T06:58:31.492Z,9.67
2023-03-21T07:00:59.735Z,8.60
2023-03-21T07:03:27.235Z,9.27
2023-03-21T07:05:54.436Z,10.40
2023-03-21T07:08:22.641Z,8.30
2023-03-21T07:10:49.896Z,9.20
2023-03-21T07:13:17.246Z,7.63
2023-03-21T07:15:49.738Z,7.77
2023-03-21T07:18:17.161Z,8.73
2023-03-21T07:20:48.036Z,9.00
2023-03-21T07:23:15.389Z,7.70
2023-03-21T07:25:42.870Z,7.50
2023-03-21T07:28:10.073Z,7.97
2023-03-21T07:30:37.687Z,9.37
2023-03-21T07:33:04.947Z,7.97
2023-03-21T07:35:32.123Z,7.40
2023-03-21T07:37:59.323Z,8.03
2023-03-21T07:40:26.469Z,7.60
2023-03-21T07:42:53.748Z,8.30
2023-03-21T07:45:30.296Z,7.93
2023-03-21T07:47:57.693Z,9.20
2023-03-21T07:50:25.062Z,8.70
2023-03-21T07:52:52.261Z,8.67
2023-03-21T07:55:19.497Z,8.00
2023-03-21T07:57:46.686Z,8.23
2023-03-21T08:00:22.687Z,7.63
2023-03-21T08:02:56.452Z,8.23
2023-03-21T08:05:27.436Z,7.77
2023-03-21T08:07:54.637Z,7.93
2023-03-21T08:10:21.769Z,8.00
2023-03-21T08:12:48.944Z,8.20
2023-03-21T08:15:16.154Z,8.57
2023-03-21T08:17:45.536Z,10.30
2023-03-21T08:20:13.969Z,8.00
2023-03-21T08:22:41.577Z,8.17
2023-03-21T08:25:10.080Z,8.50
2023-03-21T08:27:37.241Z,9.50
2023-03-21T08:30:04.547Z,9.13
2023-03-21T08:32:32.833Z,7.40
2023-03-21T08:35:04.406Z,9.23
2023-03-21T08:37:31.547Z,8.47
2023-03-21T08:39:58.982Z,8.00
2023-03-21T08:42:26.450Z,8.60
2023-03-21T08:44:53.613Z,8.80
2023-03-21T08:47:21.113Z,8.73
2023-03-21T08:49:48.376Z,7.93
2023-03-21T08:52:15.564Z,7.90
2023-03-21T08:54:44.671Z,8.47
2023-03-21T08:57:11.892Z,7.73
2023-03-21T08:59:39.502Z,8.70
2023-03-21T09:02:07.180Z,7.70
2023-03-21T09:04:34.746Z,7.90
2023-03-21T09:07:02.730Z,8.80
2023-03-21T09:09:30.339Z,8.83
2023-03-21T09:11:57.496Z,8.30
2023-03-21T09:14:28.767Z,8.83
2023-03-21T09:16:56.853Z,8.80
2023-03-21T09:19:24.249Z,8.43
2023-03-21T09:21:53.100Z,7.90
2023-03-21T09:24:20.548Z,7.60
2023-03-21T09:26:51.539Z,7.80
2023-03-21T09:29:21.195Z,9.17
2023-03-21T09:31:48.543Z,8.77
2023-03-21T09:34:15.890Z,9.00
2023-03-21T09:36:48.784Z,8.17
2023-03-21T09:39:17.251Z,10.30
2023-03-21T09:42:06.716Z,9.07
2023-03-21T09:44:53.546Z,9.07
2023-03-21T09:47:25.031Z,8.50
2023-03-21T09:50:07.582Z,8.20
2023-03-21T09:52:47.779Z,9.17
2023-03-21T09:55:21.271Z,8.13
2023-03-21T09:57:51.527Z,8.37
2023-03-21T10:00:24.762Z,9.37
2023-03-21T10:02:56.953Z,8.07
2023-03-21T10:05:26.005Z,8.20
2023-03-21T10:08:00.797Z,8.43
2023-03-21T10:10:29.915Z,9.50
2023-03-21T10:12:57.527Z,8.43
2023-03-21T10:15:26.894Z,9.20
2023-03-21T10:18:01.481Z,8.20
2023-03-21T10:20:35.901Z,8.87
2023-03-21T10:23:07.523Z,8.60
2023-03-21T10:25:38.080Z,8.13
2023-03-21T10:28:07.153Z,8.40
2023-03-21T10:30:40.748Z,8.70
2023-03-21T10:33:09.522Z,8.93
2023-03-21T10:35:39.689Z,8.27
2023-03-21T10:38:07.690Z,7.93
2023-03-21T10:40:35.588Z,7.87
2023-03-21T10:43:22.110Z,8.70
2023-03-21T10:45:50.619Z,8.00
2023-03-21T10:48:18.178Z,7.47
2023-03-21T10:50:47.727Z,7.70
2023-03-21T10:53:29.672Z,7.67
2023-03-21T10:55:57.990Z,7.83
2023-03-21T10:58:30.107Z,8.53
2023-03-21T11:00:58.781Z,8.70
2023-03-21T11:03:29.526Z,10.90
2023-03-21T11:05:57.454Z,8.50
2023-03-21T11:08:25.777Z,8.27
2023-03-21T11:10:52.968Z,9.00
2023-03-21T11:13:27.698Z,9.20
2023-03-21T11:15:56.301Z,9.50
2023-03-21T11:18:24.888Z,9.73
2023-03-21T11:20:54.292Z,9.60
2023-03-21T11:23:22.224Z,10.43
2023-03-21T11:25:51.545Z,10.93
2023-03-21T11:28:20.875Z,11.10
2023-03-21T11:30:53.546Z,11.97
2023-03-21T11:33:21.381Z,9.80
2023-03-21T11:36:02.584Z,10.20
2023-03-21T11:38:31.821Z,11.67
2023-03-21T11:41:00.357Z,13.13
2023-03-21T11:43:32.514Z,11.27
2023-03-21T11:46:01.687Z,12.30
2023-03-21T11:48:29.614Z,11.20
2023-03-21T11:51:00.237Z,11.83
2023-03-21T11:53:35.339Z,10.70
2023-03-21T11:56:41.165Z,13.20
2023-03-21T11:59:17.214Z,13.23
2023-03-21T12:01:50.064Z,11.27
2023-03-21T12:04:22.700Z,12.97
2023-03-21T12:06:55.211Z,13.57
2023-03-21T12:09:27.485Z,15.07
2023-03-21T12:12:03.681Z,13.67
2023-03-21T12:14:36.128Z,11.90
2023-03-21T12:17:14.498Z,12.57
2023-03-21T12:19:55.184Z,12.23
2023-03-21T12:22:29.368Z,11.13
2023-03-21T12:24:57.549Z,13.73
2023-03-21T12:27:29.246Z,13.70
2023-03-21T12:30:25.931Z,10.90
2023-03-21T12:33:14.951Z,11.53
2023-03-21T12:35:51.973Z,11.87
2023-03-21T12:38:29.139Z,10.87
2023-03-21T12:41:02.925Z,10.50
2023-03-21T12:43:30.174Z,10.17
2023-03-21T12:46:36.371Z,12.33
2023-03-21T12:49:06.241Z,10.57
2023-03-21T12:51:35.536Z,9.97
2023-03-21T12:54:21.783Z,12.63
2023-03-21T12:56:55.431Z,11.67
2023-03-21T12:59:36.003Z,7.70
2023-03-21T13:02:29.581Z,8.27
2023-03-21T13:05:01.355Z,6.53
2023-03-21T13:07:30.021Z,6.90
2023-03-21T13:09:57.907Z,6.43
2023-03-21T13:12:30.479Z,6.67
2023-03-21T13:14:57.677Z,5.57
2023-03-21T13:17:45.203Z,5.10
2023-03-21T13:20:31.063Z,4.80
2023-03-21T13:22:59.515Z,5.60
2023-03-21T13:25:28.104Z,5.50
2023-03-21T13:27:56.613Z,5.60
2023-03-21T13:30:28.442Z,4.97
2023-03-21T13:33:06.488Z,5.40
2023-03-21T13:35:42.514Z,6.80
2023-03-21T13:38:16.849Z,6.90
2023-03-21T13:40:51.564Z,6.20
2023-03-21T13:43:34.091Z,5.60
2023-03-21T13:46:08.064Z,5.23
2023-03-21T13:49:00.295Z,6.17
2023-03-21T13:51:37.108Z,5.80
2023-03-21T13:54:07.377Z,6.20
2023-03-21T13:56:47.009Z,8.67
2023-03-21T13:59:33.140Z,6.90
2023-03-21T14:02:01.464Z,6.13
2023-03-21T14:04:41.998Z,5.47
2023-03-21T14:07:16.581Z,5.70
2023-03-21T14:09:48.178Z,6.33
2023-03-21T14:12:16.932Z,6.50
2023-03-21T14:14:47.085Z,7.27
2023-03-21T14:17:15.376Z,7.60
2023-03-21T14:19:42.626Z,7.20
2023-03-21T14:22:12.111Z,6.00
2023-03-21T14:24:41.094Z,5.80
2023-03-21T14:27:09.162Z,6.20
2023-03-21T14:29:36.662Z,7.27
2023-03-21T14:32:05.871Z,15.33
2023-03-21T14:34:35.648Z,9.23
2023-03-21T14:37:02.919Z,7.50
2023-03-21T14:39:31.472Z,8.50
2023-03-21T14:42:06.512Z,7.17
2023-03-21T14:44:54.962Z,6.00
2023-03-21T14:47:24.241Z,6.90
2023-03-21T14:49:51.543Z,6.10
2023-03-21T14:52:27.894Z,6.43
2023-03-21T14:54:55.828Z,6.90
2023-03-21T14:57:28.767Z,7.33
2023-03-21T14:59:58.382Z,6.57
2023-03-21T15:02:25.814Z,7.40
2023-03-21T15:04:54.222Z,11.23
2023-03-21T15:07:26.693Z,10.93
2023-03-21T15:10:09.510Z,7.00
2023-03-21T15:12:36.743Z,6.50
2023-03-21T15:15:04.104Z,7.00
2023-03-21T15:17:31.511Z,8.60
2023-03-21T15:19:58.697Z,7.07
2023-03-21T15:22:32.231Z,6.23
2023-03-21T15:25:04.415Z,6.83
2023-03-21T15:27:33.336Z,6.10
2023-03-21T15:30:00.531Z,6.60
2023-03-21T15:32:28.712Z,6.50
2023-03-21T15:34:56.769Z,10.03
2023-03-21T15:37:26.373Z,8.43
2023-03-21T15:39:55.313Z,7.47
2023-03-21T15:42:29.943Z,7.57
2023-03-21T15:44:58.832Z,8.00
2023-03-21T15:47:44.888Z,8.77
2023-03-21T15:50:22.460Z,8.00
2023-03-21T15:52:50.730Z,8.30
2023-03-21T15:55:22.074Z,9.27
2023-03-21T15:57:50.495Z,8.33
2023-03-21T16:00:19.784Z,7.60
2023-03-21T16:02:48.655Z,7.30
2023-03-21T16:05:25.356Z,8.83
2023-03-21T16:07:52.649Z,9.83
2023-03-21T16:10:27.275Z,7.97
2023-03-21T16:12:54.503Z,7.80
2023-03-21T16:15:22.319Z,7.90
2023-03-21T16:17:53.908Z,8.70
2023-03-21T16:20:23.285Z,8.27
2023-03-21T16:22:50.417Z,9.57
2023-03-21T16:25:18.106Z,8.60
2023-03-21T16:27:45.857Z,7.53
2023-03-21T16:30:14.198Z,9.00
2023-03-21T16:32:41.558Z,8.60
2023-03-21T16:35:08.877Z,8.93
2023-03-21T16:37:36.151Z,8.30
2023-03-21T16:40:05.795Z,10.40
2023-03-21T16:42:32.973Z,9.73
2023-03-21T16:45:00.305Z,10.23
2023-03-21T16:47:27.750Z,10.33
2023-03-21T16:49:55.743Z,13.87
2023-03-21T16:52:25.210Z,9.60
2023-03-21T16:54:53.763Z,10.00
2023-03-21T16:57:27.693Z,9.30
2023-03-21T16:59:55.850Z,9.73
2023-03-21T17:02:24.658Z,9.87
2023-03-21T17:04:51.787Z,11.00
2023-03-21T17:07:19.442Z,13.03
2023-03-21T17:09:47.961Z,13.20
2023-03-21T17:12:16.309Z,13.10
2023-03-21T17:14:43.863Z,11.17
2023-03-21T17:17:11.991Z,13.47
2023-03-21T17:19:39.568Z,12.57
2023-03-21T17:22:06.936Z,11.27
2023-03-21T17:24:35.740Z,14.07
2023-03-21T17:27:04.111Z,11.77
2023-03-21T17:29:31.406Z,12.20
2023-03-21T17:31:58.840Z,10.77
2023-03-21T17:34:26.537Z,10.90
2023-03-21T17:36:53.700Z,10.73
2023-03-21T17:39:22.658Z,11.00
2023-03-21T17:41:51.841Z,11.33
2023-03-21T17:44:19.823Z,10.80
2023-03-21T17:46:50.214Z,11.70
2023-03-21T17:49:18.634Z,12.50
2023-03-21T17:51:46.832Z,13.20
2023-03-21T17:54:14.693Z,11.70
2023-03-21T17:56:42.348Z,11.10
2023-03-21T17:59:12.666Z,13.60
2023-03-21T18:01:39.987Z,13.07
2023-03-21T18:04:09.191Z,15.30
2023-03-21T18:06:37.298Z,12.43
2023-03-21T18:09:11.450Z,12.20
2023-03-21T18:11:40.114Z,11.27
2023-03-21T18:14:16.307Z,12.20
2023-03-21T18:16:45.767Z,13.90
2023-03-21T18:19:13.375Z,13.40
2023-03-21T18:21:41.047Z,12.93
2023-03-21T18:24:08.670Z,14.20
2023-03-21T18:26:35.925Z,13.10
2023-03-21T18:30:03.876Z,14.87
2023-03-21T18:32:04.861Z,14.27
2023-03-21T18:34:33.383Z,13.80
2023-03-21T18:37:03.688Z,14.07
2023-03-21T18:39:32.935Z,14.60
2023-03-21T18:42:02.534Z,15.13
2023-03-21T18:44:38.808Z,15.20
2023-03-21T18:47:07.108Z,16.47
2023-03-21T18:52:22.449Z,15.53
2023-03-21T18:54:49.635Z,18.40
2023-03-21T18:57:35.653Z,13.50
2023-03-21T19:00:16.991Z,16.30
2023-03-21T19:02:47.746Z,18.57
2023-03-21T19:05:18.521Z,20.90
2023-03-21T19:07:46.397Z,20.47
2023-03-21T19:10:19.015Z,18.00
2023-03-21T19:12:50.525Z,18.60
2023-03-21T19:15:19.651Z,18.83
2023-03-21T19:18:26.468Z,16.80
2023-03-21T19:20:34.911Z,17.63
2023-03-21T19:23:02.226Z,23.70
2023-03-21T19:25:29.467Z,20.40
2023-03-21T19:27:56.922Z,17.33
2023-03-21T19:30:25.532Z,18.33
2023-03-21T19:32:52.695Z,17.40
2023-03-21T19:35:19.986Z,20.07
2023-03-21T19:37:48.449Z,19.43
2023-03-21T19:40:16.016Z,20.07
2023-03-21T19:42:43.187Z,17.20
2023-03-21T19:45:10.710Z,21.67
2023-03-21T19:47:38.175Z,19.10
2023-03-21T19:50:43.813Z,18.83
2023-03-21T19:52:53.108Z,23.47
2023-03-21T19:55:20.746Z,20.33
2023-03-21T19:57:49.184Z,24.50
2023-03-21T20:00:17.525Z,19.77
2023-03-21T20:02:45.312Z,21.63
2023-03-21T20:05:13.791Z,21.03
2023-03-21T20:07:41.880Z,21.13
2023-03-21T20:10:10.846Z,18.60
2023-03-21T20:12:38.303Z,19.63
2023-03-21T20:15:18.284Z,19.60
2023-03-21T20:17:47.445Z,18.00
2023-03-21T20:20:18.324Z,17.60
2023-03-21T20:23:07.468Z,19.57
2023-03-21T20:25:35.361Z,20.90
2023-03-21T20:28:25.532Z,20.40
2023-03-21T20:30:51.126Z,20.70
2023-03-21T20:33:18.527Z,23.90
2023-03-21T20:36:29.408Z,21.90
2023-03-21T20:38:34.034Z,23.57
2023-03-21T20:41:02.726Z,20.60
2023-03-21T20:46:18.188Z,22.20
2023-03-21T20:48:48.748Z,21.60
2023-03-21T20:52:35.977Z,24.57
2023-03-21T20:54:04.568Z,21.63
2023-03-21T20:56:31.849Z,23.03
2023-03-21T20:59:12.208Z,44.27
2023-03-21T21:01:45.174Z,25.77
2023-03-21T21:04:19.249Z,24.07
2023-03-21T21:06:49.597Z,27.03
2023-03-21T21:09:17.282Z,22.97
2023-03-21T21:14:31.688Z,22.70
2023-03-21T21:17:02.608Z,25.17
2023-03-21T21:19:35.450Z,25.53
2023-03-21T21:22:02.847Z,27.50
2023-03-21T21:24:31.678Z,22.77
2023-03-21T21:26:59.489Z,23.30
2023-03-21T21:29:28.279Z,23.67
2023-03-21T21:31:56.170Z,22.97
2023-03-21T21:34:23.528Z,21.83
2023-03-21T21:36:51.116Z,21.50
2023-03-21T21:39:18.285Z,20.93
2023-03-21T21:41:45.508Z,20.43
2023-03-21T21:44:12.690Z,20.43
2023-03-21T21:46:40.048Z,21.10
2023-03-21T21:49:07.533Z,21.97
2023-03-21T21:51:34.944Z,21.73
2023-03-21T21:54:04.226Z,23.40
2023-03-21T21:56:35.083Z,23.17
2023-03-21T21:59:03.838Z,23.10
2023-03-21T22:01:31.678Z,22.60
2023-03-21T22:04:06.162Z,23.47
2023-03-21T22:06:34.735Z,23.23
2023-03-21T22:09:03.729Z,22.60
2023-03-21T22:11:31.054Z,23.50
2023-03-21T22:13:59.243Z,21.83
2023-03-21T22:16:26.507Z,22.80
2023-03-21T22:18:53.736Z,24.63
2023-03-21T22:21:21.060Z,25.17
2023-03-21T22:23:48.434Z,27.30
2023-03-21T22:26:16.084Z,24.63
2023-03-21T22:28:44.497Z,26.87
2023-03-21T22:31:12.976Z,26.40
2023-03-21T22:33:40.221Z,25.60
2023-03-21T22:36:07.661Z,27.10
2023-03-21T22:38:34.856Z,28.43
2023-03-21T22:41:02.836Z,24.87
2023-03-21T22:43:33.867Z,26.93
2023-03-21T22:46:02.297Z,25.13
2023-03-21T22:48:32.459Z,25.10
2023-03-21T22:51:00.369Z,25.63
2023-03-21T22:53:28.077Z,28.03
2023-03-21T22:55:55.338Z,28.13
2023-03-21T22:58:22.609Z,27.93
2023-03-21T23:00:49.885Z,29.43
2023-03-21T23:03:18.198Z,27.00
2023-03-21T23:05:45.925Z,27.83
2023-03-21T23:08:13.326Z,27.07
2023-03-21T23:10:47.535Z,28.83
2023-03-21T23:13:16.854Z,28.90
2023-03-21T23:15:44.080Z,28.37
2023-03-21T23:18:11.305Z,27.77
2023-03-21T23:20:38.730Z,29.23
2023-03-21T23:23:06.335Z,28.73
2023-03-21T23:25:33.561Z,30.30
2023-03-21T23:28:01.891Z,27.50
2023-03-21T23:30:30.283Z,28.73
2023-03-21T23:32:57.488Z,27.83
2023-03-21T23:35:24.738Z,26.73
2023-03-21T23:37:52.522Z,28.10
2023-03-21T23:40:20.412Z,27.63
2023-03-21T23:42:48.656Z,27.80
2023-03-21T23:45:16.243Z,27.57
2023-03-21T23:47:43.614Z,28.77
2023-03-21T23:50:11.475Z,27.90
2023-03-21T23:52:39.030Z,27.93
2023-03-21T23:55:07.705Z,28.57
2023-03-21T23:57:34.889Z,29.67
